sensor_id;sensor_type;location;lat;lon;timestamp;pressure;altitude;pressure_sealevel;temperature;humidity
31299;BME280;17927;52.350;13.402;2023-07-28T00:01:27;99884.97;;;21.18;66.38
31299;BME280;17927;52.350;13.402;2023-07-28T00:03:52;99889.41;;;21.19;66.43
31299;BME280;17927;52.350;13.402;2023-07-28T00:06:18;99893.22;;;21.18;66.34
31299;BME280;17927;52.350;13.402;2023-07-28T00:08:43;99886.91;;;21.18;66.73
31299;BME280;17927;52.350;13.402;2023-07-28T00:11:13;99884.16;;;21.18;66.85
31299;BME280;17927;52.350;13.402;2023-07-28T00:13:38;99879.47;;;21.18;66.70
31299;BME280;17927;52.350;13.402;2023-07-28T00:16:04;99885.78;;;21.19;67.09
31299;BME280;17927;52.350;13.402;2023-07-28T00:18:30;99877.56;;;21.19;66.65
31299;BME280;17927;52.350;13.402;2023-07-28T00:20:55;99871.25;;;21.18;67.13
31299;BME280;17927;52.350;13.402;2023-07-28T00:23:20;99863.00;;;21.18;66.92
31299;BME280;17927;52.350;13.402;2023-07-28T00:25:45;99859.44;;;21.18;67.23
31299;BME280;17927;52.350;13.402;2023-07-28T00:28:11;99860.25;;;21.18;66.96
31299;BME280;17927;52.350;13.402;2023-07-28T00:30:36;99863.00;;;21.18;67.14
31299;BME280;17927;52.350;13.402;2023-07-28T00:33:01;99866.81;;;21.17;66.94
31299;BME280;17927;52.350;13.402;2023-07-28T00:35:27;99860.25;;;21.18;67.27
31299;BME280;17927;52.350;13.402;2023-07-28T00:37:52;99864.09;;;21.17;67.30
31299;BME280;17927;52.350;13.402;2023-07-28T00:40:17;99861.59;;;21.16;67.43
31299;BME280;17927;52.350;13.402;2023-07-28T00:42:42;99856.91;;;21.16;67.36
31299;BME280;17927;52.350;13.402;2023-07-28T00:45:08;99853.09;;;21.17;67.66
31299;BME280;17927;52.350;13.402;2023-07-28T00:47:34;99863.84;;;21.19;67.42
31299;BME280;17927;52.350;13.402;2023-07-28T00:50:00;99870.19;;;21.19;67.43
31299;BME280;17927;52.350;13.402;2023-07-28T00:52:25;99874.81;;;21.19;67.27
31299;BME280;17927;52.350;13.402;2023-07-28T00:54:50;99860.88;;;21.20;67.39
31299;BME280;17927;52.350;13.402;2023-07-28T00:57:15;99872.69;;;21.21;67.59
31299;BME280;17927;52.350;13.402;2023-07-28T00:59:43;99855.38;;;21.20;67.62
31299;BME280;17927;52.350;13.402;2023-07-28T01:02:09;99851.31;;;21.23;67.90
31299;BME280;17927;52.350;13.402;2023-07-28T01:04:34;99850.50;;;21.22;67.88
31299;BME280;17927;52.350;13.402;2023-07-28T01:07:04;99856.59;;;21.24;68.01
31299;BME280;17927;52.350;13.402;2023-07-28T01:09:42;99856.59;;;21.24;67.61
31299;BME280;17927;52.350;13.402;2023-07-28T01:12:08;99850.25;;;21.24;67.92
31299;BME280;17927;52.350;13.402;2023-07-28T01:14:34;99848.94;;;21.26;67.69
31299;BME280;17927;52.350;13.402;2023-07-28T01:16:59;99850.03;;;21.25;67.80
31299;BME280;17927;52.350;13.402;2023-07-28T01:19:25;99840.69;;;21.26;68.02
31299;BME280;17927;52.350;13.402;2023-07-28T01:22:02;99840.47;;;21.28;68.00
31299;BME280;17927;52.350;13.402;2023-07-28T01:24:51;99847.03;;;21.27;67.74
31299;BME280;17927;52.350;13.402;2023-07-28T01:27:20;99831.63;;;21.26;68.26
31299;BME280;17927;52.350;13.402;2023-07-28T01:29:46;99836.03;;;21.27;68.21
31299;BME280;17927;52.350;13.402;2023-07-28T01:32:13;99831.97;;;21.29;68.02
31299;BME280;17927;52.350;13.402;2023-07-28T01:34:39;99836.41;;;21.30;68.33
31299;BME280;17927;52.350;13.402;2023-07-28T01:37:04;99841.91;;;21.30;67.92
31299;BME280;17927;52.350;13.402;2023-07-28T01:39:29;99832.59;;;21.32;68.07
31299;BME280;17927;52.350;13.402;2023-07-28T01:41:55;99837.59;;;21.35;68.37
31299;BME280;17927;52.350;13.402;2023-07-28T01:44:20;99844.78;;;21.36;68.08
31299;BME280;17927;52.350;13.402;2023-07-28T01:46:45;99836.53;;;21.36;68.33
31299;BME280;17927;52.350;13.402;2023-07-28T01:49:10;99841.56;;;21.39;68.21
31299;BME280;17927;52.350;13.402;2023-07-28T01:51:36;99846.00;;;21.40;68.45
31299;BME280;17927;52.350;13.402;2023-07-28T01:54:01;99839.44;;;21.41;68.25
31299;BME280;17927;52.350;13.402;2023-07-28T01:56:26;99835.56;;;21.42;68.63
31299;BME280;17927;52.350;13.402;2023-07-28T01:58:51;99834.50;;;21.43;68.25
31299;BME280;17927;52.350;13.402;2023-07-28T02:01:17;99841.44;;;21.45;68.10
31299;BME280;17927;52.350;13.402;2023-07-28T02:03:42;99827.94;;;21.44;68.59
31299;BME280;17927;52.350;13.402;2023-07-28T02:06:07;99832.34;;;21.45;68.30
31299;BME280;17927;52.350;13.402;2023-07-28T02:08:32;99836.56;;;21.48;68.18
31299;BME280;17927;52.350;13.402;2023-07-28T02:10:58;99832.97;;;21.47;68.69
31299;BME280;17927;52.350;13.402;2023-07-28T02:13:23;99841.19;;;21.47;68.36
31299;BME280;17927;52.350;13.402;2023-07-28T02:15:48;99840.13;;;21.48;68.80
31299;BME280;17927;52.350;13.402;2023-07-28T02:18:13;99837.38;;;21.48;68.67
31299;BME280;17927;52.350;13.402;2023-07-28T02:20:39;99846.47;;;21.49;68.28
31299;BME280;17927;52.350;13.402;2023-07-28T02:23:04;99848.13;;;21.50;68.83
31299;BME280;17927;52.350;13.402;2023-07-28T02:25:29;99852.31;;;21.52;68.46
31299;BME280;17927;52.350;13.402;2023-07-28T02:27:55;99839.41;;;21.53;68.32
31299;BME280;17927;52.350;13.402;2023-07-28T02:30:20;99833.91;;;21.53;68.60
31299;BME280;17927;52.350;13.402;2023-07-28T02:32:45;99841.09;;;21.54;68.46
31299;BME280;17927;52.350;13.402;2023-07-28T02:35:10;99835.59;;;21.54;68.40
31299;BME280;17927;52.350;13.402;2023-07-28T02:37:36;99824.59;;;21.54;68.42
31299;BME280;17927;52.350;13.402;2023-07-28T02:40:01;99826.53;;;21.53;68.88
31299;BME280;17927;52.350;13.402;2023-07-28T02:42:26;99819.34;;;21.52;68.92
31299;BME280;17927;52.350;13.402;2023-07-28T02:44:52;99830.34;;;21.52;68.63
31299;BME280;17927;52.350;13.402;2023-07-28T02:47:17;99818.28;;;21.53;68.50
31299;BME280;17927;52.350;13.402;2023-07-28T02:49:42;99823.78;;;21.53;68.90
31299;BME280;17927;52.350;13.402;2023-07-28T02:52:08;99816.34;;;21.54;68.69
31299;BME280;17927;52.350;13.402;2023-07-28T02:54:33;99821.03;;;21.53;68.72
31299;BME280;17927;52.350;13.402;2023-07-28T02:56:59;99829.28;;;21.53;69.05
31299;BME280;17927;52.350;13.402;2023-07-28T02:59:24;99828.66;;;21.51;68.73
31299;BME280;17927;52.350;13.402;2023-07-28T03:01:49;99816.00;;;21.50;69.00
31299;BME280;17927;52.350;13.402;2023-07-28T03:04:17;99813.88;;;21.52;69.26
31299;BME280;17927;52.350;13.402;2023-07-28T03:06:43;99819.56;;;21.51;68.95
31299;BME280;17927;52.350;13.402;2023-07-28T03:09:09;99824.25;;;21.50;69.29
31299;BME280;17927;52.350;13.402;2023-07-28T03:11:34;99830.34;;;21.52;69.16
31299;BME280;17927;52.350;13.402;2023-07-28T03:13:59;99830.34;;;21.52;69.21
31299;BME280;17927;52.350;13.402;2023-07-28T03:16:24;99830.94;;;21.54;68.90
31299;BME280;17927;52.350;13.402;2023-07-28T03:18:50;99839.19;;;21.54;69.19
31299;BME280;17927;52.350;13.402;2023-07-28T03:21:15;99843.84;;;21.54;68.93
31299;BME280;17927;52.350;13.402;2023-07-28T03:23:40;99853.53;;;21.56;68.80
31299;BME280;17927;52.350;13.402;2023-07-28T03:26:06;99845.28;;;21.56;69.15
31299;BME280;17927;52.350;13.402;2023-07-28T03:28:31;99853.28;;;21.58;68.73
31299;BME280;17927;52.350;13.402;2023-07-28T03:30:56;99854.97;;;21.59;69.03
31299;BME280;17927;52.350;13.402;2023-07-28T03:33:21;99852.22;;;21.59;68.76
31299;BME280;17927;52.350;13.402;2023-07-28T03:35:46;99851.16;;;21.60;69.26
31299;BME280;17927;52.350;13.402;2023-07-28T03:38:12;99842.94;;;21.60;68.71
31299;BME280;17927;52.350;13.402;2023-07-28T03:40:37;99846.50;;;21.60;69.01
31299;BME280;17927;52.350;13.402;2023-07-28T03:43:02;99846.50;;;21.60;69.20
31299;BME280;17927;52.350;13.402;2023-07-28T03:45:28;99853.44;;;21.63;68.77
31299;BME280;17927;52.350;13.402;2023-07-28T03:47:54;99851.53;;;21.64;68.74
31299;BME280;17927;52.350;13.402;2023-07-28T03:50:19;99855.13;;;21.64;68.69
31299;BME280;17927;52.350;13.402;2023-07-28T03:55:09;99859.03;;;21.68;68.97
31299;BME280;17927;52.350;13.402;2023-07-28T03:57:34;99856.28;;;21.68;68.96
31299;BME280;17927;52.350;13.402;2023-07-28T04:00:00;99848.03;;;21.68;68.88
31299;BME280;17927;52.350;13.402;2023-07-28T04:02:25;99857.16;;;21.69;69.02
31299;BME280;17927;52.350;13.402;2023-07-28T04:04:54;99859.03;;;21.68;68.92
31299;BME280;17927;52.350;13.402;2023-07-28T04:07:20;99857.16;;;21.69;69.12
31299;BME280;17927;52.350;13.402;2023-07-28T04:09:45;99861.56;;;21.70;68.87
31299;BME280;17927;52.350;13.402;2023-07-28T04:12:10;99870.41;;;21.72;68.93
31299;BME280;17927;52.350;13.402;2023-07-28T04:14:36;99870.63;;;21.70;68.80
31299;BME280;17927;52.350;13.402;2023-07-28T04:17:01;99870.41;;;21.72;68.82
31299;BME280;17927;52.350;13.402;2023-07-28T04:19:26;99878.66;;;21.72;69.12
31299;BME280;17927;52.350;13.402;2023-07-28T04:21:54;99867.41;;;21.73;69.23
31299;BME280;17927;52.350;13.402;2023-07-28T04:24:19;99868.25;;;21.74;69.24
31299;BME280;17927;52.350;13.402;2023-07-28T04:26:46;99873.16;;;21.72;69.22
31299;BME280;17927;52.350;13.402;2023-07-28T04:29:14;99876.47;;;21.74;69.37
31299;BME280;17927;52.350;13.402;2023-07-28T04:31:39;99878.16;;;21.75;69.37
31299;BME280;17927;52.350;13.402;2023-07-28T04:34:04;99880.91;;;21.75;69.14
31299;BME280;17927;52.350;13.402;2023-07-28T04:36:29;99863.13;;;21.78;69.21
31299;BME280;17927;52.350;13.402;2023-07-28T04:38:55;99874.72;;;21.80;69.50
31299;BME280;17927;52.350;13.402;2023-07-28T04:41:20;99868.97;;;21.81;69.57
31299;BME280;17927;52.350;13.402;2023-07-28T04:43:46;99869.56;;;21.83;69.24
31299;BME280;17927;52.350;13.402;2023-07-28T04:46:11;99868.72;;;21.83;69.65
31299;BME280;17927;52.350;13.402;2023-07-28T04:48:36;99868.50;;;21.84;69.43
31299;BME280;17927;52.350;13.402;2023-07-28T04:51:01;99869.31;;;21.85;69.28
31299;BME280;17927;52.350;13.402;2023-07-28T04:53:27;99871.00;;;21.86;69.16
31299;BME280;17927;52.350;13.402;2023-07-28T04:55:52;99867.16;;;21.87;69.14
31299;BME280;17927;52.350;13.402;2023-07-28T04:58:17;99875.78;;;21.90;69.74
31299;BME280;17927;52.350;13.402;2023-07-28T05:00:42;99868.13;;;21.93;69.30
31299;BME280;17927;52.350;13.402;2023-07-28T05:03:08;99869.31;;;21.97;69.37
31299;BME280;17927;52.350;13.402;2023-07-28T05:05:33;99872.91;;;21.97;69.29
31299;BME280;17927;52.350;13.402;2023-07-28T05:07:58;99870.53;;;22.01;69.17
31299;BME280;17927;52.350;13.402;2023-07-28T05:10:23;99874.69;;;22.03;69.59
31299;BME280;17927;52.350;13.402;2023-07-28T05:12:49;99873.16;;;22.08;69.51
31299;BME280;17927;52.350;13.402;2023-07-28T05:15:15;99871.81;;;22.10;69.54
31299;BME280;17927;52.350;13.402;2023-07-28T05:17:40;99879.81;;;22.12;69.54
31299;BME280;17927;52.350;13.402;2023-07-28T05:20:06;99875.97;;;22.13;69.37
31299;BME280;17927;52.350;13.402;2023-07-28T05:22:31;99886.97;;;22.13;69.14
31299;BME280;17927;52.350;13.402;2023-07-28T05:24:56;99884.00;;;22.14;69.10
31299;BME280;17927;52.350;13.402;2023-07-28T05:27:22;99892.00;;;22.16;69.30
31299;BME280;17927;52.350;13.402;2023-07-28T05:29:47;99886.03;;;22.19;69.25
31299;BME280;17927;52.350;13.402;2023-07-28T05:32:12;99898.47;;;22.21;68.96
31299;BME280;17927;52.350;13.402;2023-07-28T05:34:37;99904.56;;;22.24;69.29
31299;BME280;17927;52.350;13.402;2023-07-28T05:37:03;99900.50;;;22.26;68.79
31299;BME280;17927;52.350;13.402;2023-07-28T05:39:28;99893.91;;;22.27;68.66
31299;BME280;17927;52.350;13.402;2023-07-28T05:41:54;99899.19;;;22.29;68.86
31299;BME280;17927;52.350;13.402;2023-07-28T05:44:19;99891.75;;;22.29;69.06
31299;BME280;17927;52.350;13.402;2023-07-28T05:46:44;99895.09;;;22.31;68.99
31299;BME280;17927;52.350;13.402;2023-07-28T05:49:10;99890.66;;;22.30;68.91
31299;BME280;17927;52.350;13.402;2023-07-28T05:51:36;99900.59;;;22.31;68.46
31299;BME280;17927;52.350;13.402;2023-07-28T05:54:01;99898.69;;;22.32;68.71
31299;BME280;17927;52.350;13.402;2023-07-28T05:56:27;99903.94;;;22.33;68.55
31299;BME280;17927;52.350;13.402;2023-07-28T05:58:52;99899.53;;;22.32;68.91
31299;BME280;17927;52.350;13.402;2023-07-28T06:01:17;99898.69;;;22.32;68.46
31299;BME280;17927;52.350;13.402;2023-07-28T06:03:44;99896.53;;;22.34;68.62
31299;BME280;17927;52.350;13.402;2023-07-28T06:06:09;99899.31;;;22.34;68.94
31299;BME280;17927;52.350;13.402;2023-07-28T06:08:34;99908.13;;;22.36;68.66
31299;BME280;17927;52.350;13.402;2023-07-28T06:11:00;99911.47;;;22.38;68.66
31299;BME280;17927;52.350;13.402;2023-07-28T06:13:25;99915.06;;;22.39;68.26
31299;BME280;17927;52.350;13.402;2023-07-28T06:15:53;99922.47;;;22.38;68.27
31299;BME280;17927;52.350;13.402;2023-07-28T06:18:18;99930.72;;;22.38;68.43
31299;BME280;17927;52.350;13.402;2023-07-28T06:20:43;99926.91;;;22.39;68.35
31299;BME280;17927;52.350;13.402;2023-07-28T06:23:09;99933.00;;;22.41;68.52
31299;BME280;17927;52.350;13.402;2023-07-28T06:25:34;99944.88;;;22.42;68.67
31299;BME280;17927;52.350;13.402;2023-07-28T06:28:00;99949.06;;;22.44;68.87
31299;BME280;17927;52.350;13.402;2023-07-28T06:30:25;99957.91;;;22.46;68.70
31299;BME280;17927;52.350;13.402;2023-07-28T06:32:51;99954.91;;;22.48;68.75
31299;BME280;17927;52.350;13.402;2023-07-28T06:35:16;99959.09;;;22.50;68.55
31299;BME280;17927;52.350;13.402;2023-07-28T06:37:41;99967.47;;;22.56;68.79
31299;BME280;17927;52.350;13.402;2023-07-28T06:40:07;99961.22;;;22.60;68.68
31299;BME280;17927;52.350;13.402;2023-07-28T06:42:34;99967.91;;;22.64;68.87
31299;BME280;17927;52.350;13.402;2023-07-28T06:44:59;99963.34;;;22.70;68.71
31299;BME280;17927;52.350;13.402;2023-07-28T06:47:25;99975.31;;;22.76;68.99
31299;BME280;17927;52.350;13.402;2023-07-28T06:49:50;99970.75;;;22.81;68.71
31299;BME280;17927;52.350;13.402;2023-07-28T06:52:15;99975.53;;;22.86;68.95
31299;BME280;17927;52.350;13.402;2023-07-28T06:54:40;99968.22;;;22.92;68.77
31299;BME280;17927;52.350;13.402;2023-07-28T06:57:06;99965.81;;;22.95;68.52
31299;BME280;17927;52.350;13.402;2023-07-28T06:59:32;99969.50;;;23.01;68.60
31299;BME280;17927;52.350;13.402;2023-07-28T07:01:57;99972.38;;;23.06;68.63
31299;BME280;17927;52.350;13.402;2023-07-28T07:04:22;99964.53;;;23.15;68.69
31299;BME280;17927;52.350;13.402;2023-07-28T07:06:47;99972.44;;;23.23;68.64
31299;BME280;17927;52.350;13.402;2023-07-28T07:09:13;99972.28;;;23.30;68.04
31299;BME280;17927;52.350;13.402;2023-07-28T07:11:41;99977.06;;;23.35;67.43
31299;BME280;17927;52.350;13.402;2023-07-28T07:14:06;99972.38;;;23.35;67.44
31299;BME280;17927;52.350;13.402;2023-07-28T07:16:32;99975.13;;;23.35;67.25
31299;BME280;17927;52.350;13.402;2023-07-28T07:18:57;99974.66;;;23.38;67.24
31299;BME280;17927;52.350;13.402;2023-07-28T07:21:23;99981.34;;;23.42;67.53
31299;BME280;17927;52.350;13.402;2023-07-28T07:23:48;99978.66;;;23.48;67.39
31299;BME280;17927;52.350;13.402;2023-07-28T07:26:13;99982.59;;;23.52;67.11
31299;BME280;17927;52.350;13.402;2023-07-28T07:28:38;99984.03;;;23.54;67.00
31299;BME280;17927;52.350;13.402;2023-07-28T07:31:04;99983.78;;;23.56;66.96
31299;BME280;17927;52.350;13.402;2023-07-28T07:33:29;99983.25;;;23.59;66.46
31299;BME280;17927;52.350;13.402;2023-07-28T07:35:54;99986.38;;;23.63;67.06
31299;BME280;17927;52.350;13.402;2023-07-28T07:38:19;99992.22;;;23.66;66.49
31299;BME280;17927;52.350;13.402;2023-07-28T07:40:47;99994.22;;;23.71;66.14
31299;BME280;17927;52.350;13.402;2023-07-28T07:43:13;99998.06;;;23.70;66.19
31299;BME280;17927;52.350;13.402;2023-07-28T07:45:44;99994.22;;;23.71;65.90
31299;BME280;17927;52.350;13.402;2023-07-28T07:48:11;99993.75;;;23.74;66.21
31299;BME280;17927;52.350;13.402;2023-07-28T07:50:36;99999.59;;;23.78;66.07
31299;BME280;17927;52.350;13.402;2023-07-28T07:53:01;99991.66;;;23.81;66.23
31299;BME280;17927;52.350;13.402;2023-07-28T07:55:26;100002.19;;;23.84;65.88
31299;BME280;17927;52.350;13.402;2023-07-28T07:57:51;100007.19;;;23.87;65.89
31299;BME280;17927;52.350;13.402;2023-07-28T08:00:17;100005.13;;;23.95;66.02
31299;BME280;17927;52.350;13.402;2023-07-28T08:02:42;100007.00;;;24.06;66.67
31299;BME280;17927;52.350;13.402;2023-07-28T08:05:07;100009.66;;;24.18;66.66
31299;BME280;17927;52.350;13.402;2023-07-28T08:07:33;100017.59;;;24.31;65.89
31299;BME280;17927;52.350;13.402;2023-07-28T08:09:59;100011.41;;;24.41;65.55
31299;BME280;17927;52.350;13.402;2023-07-28T08:12:25;100018.16;;;24.51;65.50
31299;BME280;17927;52.350;13.402;2023-07-28T08:14:50;100012.72;;;24.56;64.78
31299;BME280;17927;52.350;13.402;2023-07-28T08:17:15;100009.19;;;24.60;64.81
31299;BME280;17927;52.350;13.402;2023-07-28T08:19:41;100012.03;;;24.66;64.88
31299;BME280;17927;52.350;13.402;2023-07-28T08:22:07;99998.28;;;24.71;64.79
31299;BME280;17927;52.350;13.402;2023-07-28T08:24:32;99996.78;;;24.80;64.86
31299;BME280;17927;52.350;13.402;2023-07-28T08:26:58;99996.31;;;24.88;64.55
31299;BME280;17927;52.350;13.402;2023-07-28T08:29:23;100008.06;;;25.01;64.49
31299;BME280;17927;52.350;13.402;2023-07-28T08:31:49;100000.81;;;25.17;64.83
31299;BME280;17927;52.350;13.402;2023-07-28T08:34:14;100008.19;;;25.33;64.33
31299;BME280;17927;52.350;13.402;2023-07-28T08:36:40;100026.56;;;25.45;63.04
31299;BME280;17927;52.350;13.402;2023-07-28T08:39:06;100000.38;;;25.52;62.60
31299;BME280;17927;52.350;13.402;2023-07-28T08:41:31;100016.50;;;25.61;62.26
31299;BME280;17927;52.350;13.402;2023-07-28T08:43:56;100018.78;;;25.69;62.33
31299;BME280;17927;52.350;13.402;2023-07-28T08:46:22;100017.75;;;25.75;62.23
31299;BME280;17927;52.350;13.402;2023-07-28T08:48:48;100024.16;;;25.81;62.11
31299;BME280;17927;52.350;13.402;2023-07-28T08:51:13;100035.22;;;25.81;62.08
31299;BME280;17927;52.350;13.402;2023-07-28T08:53:39;100030.50;;;25.76;61.45
31299;BME280;17927;52.350;13.402;2023-07-28T08:56:05;100035.97;;;25.71;61.42
31299;BME280;17927;52.350;13.402;2023-07-28T08:58:30;100041.63;;;25.59;61.24
31299;BME280;17927;52.350;13.402;2023-07-28T09:00:56;100046.22;;;25.48;61.52
31299;BME280;17927;52.350;13.402;2023-07-28T09:03:25;100039.81;;;25.43;62.21
31299;BME280;17927;52.350;13.402;2023-07-28T09:05:58;100031.28;;;25.44;63.26
31299;BME280;17927;52.350;13.402;2023-07-28T09:08:24;100037.34;;;25.46;64.12
31299;BME280;17927;52.350;13.402;2023-07-28T09:10:49;100039.09;;;25.52;64.31
31299;BME280;17927;52.350;13.402;2023-07-28T09:13:16;100041.94;;;25.63;64.45
31299;BME280;17927;52.350;13.402;2023-07-28T09:15:42;100049.50;;;25.73;64.10
31299;BME280;17927;52.350;13.402;2023-07-28T09:18:12;100045.13;;;25.77;63.14
31299;BME280;17927;52.350;13.402;2023-07-28T09:20:39;100044.31;;;25.76;62.90
31299;BME280;17927;52.350;13.402;2023-07-28T09:23:06;100059.22;;;25.75;62.28
31299;BME280;17927;52.350;13.402;2023-07-28T09:25:33;100059.75;;;25.72;61.76
31299;BME280;17927;52.350;13.402;2023-07-28T09:27:59;100062.97;;;25.64;61.60
31299;BME280;17927;52.350;13.402;2023-07-28T09:30:25;100071.22;;;25.59;61.80
31299;BME280;17927;52.350;13.402;2023-07-28T09:32:52;100075.13;;;25.63;62.35
31299;BME280;17927;52.350;13.402;2023-07-28T09:35:19;100083.75;;;25.66;62.25
31299;BME280;17927;52.350;13.402;2023-07-28T09:37:46;100080.44;;;25.69;61.94
31299;BME280;17927;52.350;13.402;2023-07-28T09:40:22;100093.19;;;25.71;61.73
31299;BME280;17927;52.350;13.402;2023-07-28T09:42:49;100089.31;;;25.72;61.69
31299;BME280;17927;52.350;13.402;2023-07-28T09:45:16;100092.94;;;25.72;61.71
31299;BME280;17927;52.350;13.402;2023-07-28T09:47:44;100104.00;;;25.72;61.45
31299;BME280;17927;52.350;13.402;2023-07-28T09:50:10;100098.16;;;25.68;61.40
31299;BME280;17927;52.350;13.402;2023-07-28T09:52:42;100105.00;;;25.61;61.31
31299;BME280;17927;52.350;13.402;2023-07-28T09:55:09;100097.41;;;25.51;61.65
31299;BME280;17927;52.350;13.402;2023-07-28T09:57:55;100098.44;;;25.45;62.09
31299;BME280;17927;52.350;13.402;2023-07-28T10:00:23;100097.03;;;25.42;62.60
31299;BME280;17927;52.350;13.402;2023-07-28T10:02:49;100098.09;;;25.41;62.54
31299;BME280;17927;52.350;13.402;2023-07-28T10:05:15;100089.31;;;25.44;62.80
31299;BME280;17927;52.350;13.402;2023-07-28T10:07:43;100089.94;;;25.51;62.87
31299;BME280;17927;52.350;13.402;2023-07-28T10:10:11;100078.09;;;25.56;63.16
31299;BME280;17927;52.350;13.402;2023-07-28T10:12:49;100085.63;;;25.61;62.75
31299;BME280;17927;52.350;13.402;2023-07-28T10:15:20;100090.31;;;25.60;62.80
31299;BME280;17927;52.350;13.402;2023-07-28T10:17:54;100089.28;;;25.66;63.22
31299;BME280;17927;52.350;13.402;2023-07-28T10:20:40;100092.16;;;25.77;63.33
31299;BME280;17927;52.350;13.402;2023-07-28T10:23:20;100094.19;;;25.87;63.59
31299;BME280;17927;52.350;13.402;2023-07-28T10:25:46;100081.81;;;25.94;63.11
31299;BME280;17927;52.350;13.402;2023-07-28T10:28:34;100099.34;;;26.05;62.28
31299;BME280;17927;52.350;13.402;2023-07-28T10:31:05;100094.72;;;26.11;62.04
31299;BME280;17927;52.350;13.402;2023-07-28T10:33:33;100091.22;;;26.21;61.60
31299;BME280;17927;52.350;13.402;2023-07-28T10:36:00;100096.00;;;26.31;61.44
31299;BME280;17927;52.350;13.402;2023-07-28T10:38:35;100088.31;;;26.38;61.43
31299;BME280;17927;52.350;13.402;2023-07-28T10:41:09;100102.22;;;26.48;60.63
31299;BME280;17927;52.350;13.402;2023-07-28T10:43:35;100087.59;;;26.58;60.60
31299;BME280;17927;52.350;13.402;2023-07-28T10:46:01;100074.63;;;26.64;60.38
31299;BME280;17927;52.350;13.402;2023-07-28T10:48:26;100085.75;;;26.69;59.58
31299;BME280;17927;52.350;13.402;2023-07-28T10:50:51;100091.03;;;26.70;59.29
31299;BME280;17927;52.350;13.402;2023-07-28T10:53:17;100097.97;;;26.73;59.05
31299;BME280;17927;52.350;13.402;2023-07-28T10:55:43;100097.16;;;26.78;59.56
31299;BME280;17927;52.350;13.402;2023-07-28T10:58:09;100095.03;;;26.85;59.71
31299;BME280;17927;52.350;13.402;2023-07-28T11:00:34;100087.31;;;26.92;59.62
31299;BME280;17927;52.350;13.402;2023-07-28T11:02:59;100079.31;;;27.01;59.21
31299;BME280;17927;52.350;13.402;2023-07-28T11:05:27;100087.66;;;27.11;59.51
31299;BME280;17927;52.350;13.402;2023-07-28T11:07:58;100083.53;;;27.19;58.37
31299;BME280;17927;52.350;13.402;2023-07-28T11:10:24;100086.63;;;27.28;58.41
31299;BME280;17927;52.350;13.402;2023-07-28T11:12:52;100083.34;;;27.36;58.19
31299;BME280;17927;52.350;13.402;2023-07-28T11:15:18;100076.69;;;27.42;58.06
31299;BME280;17927;52.350;13.402;2023-07-28T11:17:46;100074.25;;;27.51;57.78
31299;BME280;17927;52.350;13.402;2023-07-28T11:22:40;100087.38;;;27.71;57.01
31299;BME280;17927;52.350;13.402;2023-07-28T11:25:06;100089.31;;;27.76;55.96
31299;BME280;17927;52.350;13.402;2023-07-28T11:27:38;100087.94;;;27.78;55.52
31299;BME280;17927;52.350;13.402;2023-07-28T11:30:04;100083.50;;;27.83;55.65
31299;BME280;17927;52.350;13.402;2023-07-28T11:32:31;100089.06;;;27.93;55.27
31299;BME280;17927;52.350;13.402;2023-07-28T11:35:11;100092.41;;;28.05;55.10
31299;BME280;17927;52.350;13.402;2023-07-28T11:37:39;100091.91;;;28.14;55.09
31299;BME280;17927;52.350;13.402;2023-07-28T11:40:06;100092.75;;;28.24;54.88
31299;BME280;17927;52.350;13.402;2023-07-28T11:42:41;100093.84;;;28.39;54.84
31299;BME280;17927;52.350;13.402;2023-07-28T11:45:08;100098.25;;;28.45;54.70
31299;BME280;17927;52.350;13.402;2023-07-28T11:47:35;100098.53;;;28.54;54.68
31299;BME280;17927;52.350;13.402;2023-07-28T11:50:00;100100.19;;;28.65;53.67
31299;BME280;17927;52.350;13.402;2023-07-28T11:52:31;100097.97;;;28.78;53.55
31299;BME280;17927;52.350;13.402;2023-07-28T11:54:56;100097.13;;;28.67;54.77
31299;BME280;17927;52.350;13.402;2023-07-28T11:57:24;100105.19;;;28.84;53.30
31299;BME280;17927;52.350;13.402;2023-07-28T11:59:49;100104.31;;;28.99;52.53
31299;BME280;17927;52.350;13.402;2023-07-28T12:02:24;100102.34;;;29.05;51.18
31299;BME280;17927;52.350;13.402;2023-07-28T12:04:50;100116.50;;;29.08;50.89
31299;BME280;17927;52.350;13.402;2023-07-28T12:07:18;100117.91;;;29.11;50.92
31299;BME280;17927;52.350;13.402;2023-07-28T12:12:20;100121.75;;;29.25;50.54
31299;BME280;17927;52.350;13.402;2023-07-28T12:14:46;100129.50;;;29.33;49.87
31299;BME280;17927;52.350;13.402;2023-07-28T12:17:16;100117.28;;;29.40;50.08
31299;BME280;17927;52.350;13.402;2023-07-28T12:20:04;100124.75;;;29.44;49.09
31299;BME280;17927;52.350;13.402;2023-07-28T12:22:36;100128.66;;;29.38;48.91
31299;BME280;17927;52.350;13.402;2023-07-28T12:25:01;100125.91;;;29.33;48.81
31299;BME280;17927;52.350;13.402;2023-07-28T12:27:27;100131.78;;;29.21;48.21
31299;BME280;17927;52.350;13.402;2023-07-28T12:29:52;100149.59;;;29.10;50.04
31299;BME280;17927;52.350;13.402;2023-07-28T12:32:18;100160.75;;;28.94;50.98
31299;BME280;17927;52.350;13.402;2023-07-28T12:34:43;100156.59;;;28.76;51.62
31299;BME280;17927;52.350;13.402;2023-07-28T12:37:08;100152.44;;;28.63;52.39
31299;BME280;17927;52.350;13.402;2023-07-28T12:39:37;100156.59;;;28.55;52.82
31299;BME280;17927;52.350;13.402;2023-07-28T12:42:09;100163.53;;;28.48;53.17
31299;BME280;17927;52.350;13.402;2023-07-28T12:44:36;100165.75;;;28.40;53.76
31299;BME280;17927;52.350;13.402;2023-07-28T12:47:02;100177.94;;;28.34;53.80
31299;BME280;17927;52.350;13.402;2023-07-28T12:49:28;100187.41;;;28.28;54.00